To NAV CANADA Home Page Login to a new session Search on AWWS site Disclaimer Vers la page française équivalente Tips FAQ What's new on the site To the Forecasts and Observations / NOTAM section To "File a Flight Plan" website Publications and other links Update of the User's profile FIC Telephone Numbers My Weather Data Folder Route Weather Data Regional Weather Data Local Weather Data To the Forecasts and Observations / NOTAM section
Request Generated 04/22/2019 at 12:59:48 UTC . Weather information available at that time is displayed.

METAR/TAF

If you find any discrepancies between the coded METAR/TAF and the plain language METAR/TAF please use the coded METAR/TAF. LWIS bulletins are not decoded in plain language.

WINNIPEG/JAMES ARMSTRONG RICHARDSON INTL/MB    

METAR CYWG 221200Z 02006KT 15SM FEW120 03/01 A3020 RMK AC1 SLP234=
METAR
LOCATION
CYWG - WINNIPEG/JAMES ARMSTRONG RICHARDSON
DATE - TIME
22 APRIL 2019 - 1200 UTC
WIND
20 TRUE @ 6  KNOTS
VISIBILITY
15 STAT.  MILES
RUNWAY VISUAL RANGE
WEATHER
CLOUDINESS
FEW CLOUDS (1/8 - 2/8) 12000  FT
TEMP / DEWPOINT
3 C / 1 C
ALTIMETER
30.20 IN HG
RECENT WEATHER
WIND SHEAR

METAR CYWG 221100Z 02010KT 15SM FEW045 03/01 A3018 RMK SC1 SLP228=
METAR
LOCATION
CYWG - WINNIPEG/JAMES ARMSTRONG RICHARDSON
DATE - TIME
22 APRIL 2019 - 1100 UTC
WIND
20 TRUE @ 10  KNOTS
VISIBILITY
15 STAT.  MILES
RUNWAY VISUAL RANGE
WEATHER
CLOUDINESS
FEW CLOUDS (1/8 - 2/8) 4500  FT
TEMP / DEWPOINT
3 C / 1 C
ALTIMETER
30.18 IN HG
RECENT WEATHER
WIND SHEAR

METAR CYWG 221000Z 01009KT 15SM SKC 03/01 A3017 RMK SLP223=
METAR
LOCATION
CYWG - WINNIPEG/JAMES ARMSTRONG RICHARDSON
DATE - TIME
22 APRIL 2019 - 1000 UTC
WIND
10 TRUE @ 9  KNOTS
VISIBILITY
15 STAT.  MILES
RUNWAY VISUAL RANGE
WEATHER
CLOUDINESS
CLEAR SKY
TEMP / DEWPOINT
3 C / 1 C
ALTIMETER
30.17 IN HG
RECENT WEATHER
WIND SHEAR

TAF CYWG 221138Z 2212/2312 02010KT P6SM FEW040 FM230400 33006KT P6SM SKC FM231000 17006KT P6SM FEW180 RMK NXT FCST BY 221800Z=
TAF
LOCATION

CYWG - WINNIPEG/JAMES ARMSTRONG RICHARDSON INTL/MB
VALIDITY [UTC]
22 APR - 1138 to
23 APR - 1200
 
TIMES
[UTC]
WIND
[DEGREES TRUE]
VISIBILITY
[STAT. MILES]
WEATHER
CLOUDINESS
[FEET AGL]
 
22 APR - 1200 to
23 APR - 0400
20 @ 10 KNOTS
6+
NIL
4000 FEW
 
23 APR - 0400 to
23 APR - 1000
330 @ 6 KNOTS
6+
NIL
CLEAR SKY
 
23 APR - 1000 to
23 APR - 1200
170 @ 6 KNOTS
6+
NIL
18000 FEW
REMARKS
THE NEXT FORECAST WILL BE ISSUED BY 1800 UTC ON DAY 22


Your time UTC time
Weather data provided by Environment Canada and NAV CANADA